Language selection

My Weather Profile Weather Topics  | 

West Coast Haida Gwaii - southern half: Past 24 Hour Conditions

 

West Dixon Entrance - 46205

12:00 PM PST 29 November 2021Buoy position: 54.17N 134.28W
Disclaimer

This table is a summary of hourly weather conditions for the past 24 hours.
Please note that these observations might not always be representative of weather conditions over their associated marine area.

Date / Time
(PST)
Wind(knots) Wave height(m) Wave period(s) Pressure(kPa) Air tempC) Water tempC)
29 November 2021
12:00 S 23 gust 46 3.0 10.0 100.1 8 8
11:00 SE 23 gust 29 2.9 10.0 100.3 6 8
10:00 SE 17 gust 23 2.8 12.0 100.6 6 8
9:00 SE 17 gust 29 2.8 11.0 100.8 5 8
8:00 SSE 17 gust 23 3.1 11.0 101.0 5 8
7:00 SE 17 gust 22 2.8 11.0 101.1 5 8
6:00 SE 16 gust 22 3.0 11.0 101.2 5 8
5:00 SE 13 gust 19 3.1 11.0 101.4 5 8
4:00 SE 12 gust 17 2.9 10.0 101.5 5 8
3:00 SSE 12 gust 19 2.8 11.0 101.6 5 8
2:00 SSE 10 gust 16 2.7 10.0 101.6 4 8
1:00 SSE 8 gust 17 2.8 10.0 101.8 5 8
0:00 W 6 gust 33 2.9 10.0 101.8 5 8
28 November 2021
23:00 W 4 gust 16 3.0 10.0 101.8 5 8
22:00 W 6 gust 10 3.1 9.0 101.7 5 8
21:00 W 6 gust 16 2.8 9.0 101.6 4 8
20:00 WNW 8 gust 13 2.9 9.0 101.6 4 8
19:00 N 6 gust 13 2.9 9.0 101.6 4 8
18:00 W 8 gust 13 2.8 8.0 101.6 4 8
17:00 W 12 gust 17 2.7 10.0 101.5 4 8
16:00 W 17 gust 22 2.8 9.0 101.4 4 8
15:00 W 16 gust 22 3.0 9.0 101.3 4 8
14:00 WNW 19 gust 25 2.9 9.0 101.2 4 8
13:00 W 16 gust 22 2.9 9.0 101.2 5 8
12:00 W 17 gust 29 3.0 8.0 101.1 4 8

Zoom-in to make a selection

Map of Pacific - North Coast marine weather areas Middle Nomad - 46004 South Nomad - 46036 Dixon Entrance Central - 46145 South Moresby - 46147 Nanakwa Shoal - 46181 North Hecate Strait - 46183 North Nomad - 46184 South Hecate Strait - 46185 West Sea Otter - 46204 West Dixon Entrance - 46205 East Dellwood - 46207 West Moresby - 46208 Sartine Island Cape St.James Kindakun Rocks Langara Island Masset Municipal Airport Rose Spit Sandspit Airport Bella Bella Airport Bella Coola Airport Bonilla Island Cathedral Point Cumshewa Island Grey Islet Holland Rock Lucy Islands Lightstation Prince Rupert Airport
Legend:
buoy Buoy
land station Land Station

Pacific - North Coast Area

Another Region

What we are doing

Features

Hello Weather

Hello Weather: our upgraded telephone weather service is here. 1-833-794-3556 or 1-833-79HELLO.

Date modified: